Ostrava, Czech Republic

5:37 AM CET on January 18, 2017 (GMT +0100)
Mosnov | | Change Station

Elev 840 ft 49.68 °N, 18.12 °E | Updated 7 minutes ago

Overcast
Overcast
23 °F
Feels Like 10 °F
N
15
Wind Variable Wind from NE

Today
High -- | Low -- °F
--% Chance of Precip.
Yesterday
High -- | Low -- °F
Precip. -- in
Pressure 30.60 in
Visibility 5.0 miles
Clouds Overcast 1200 ft
Windchill 10 °F
Dew Point 19 °F
Humidity 86%
Rainfall 0.00 in
Snow Depth Not available.
7:36 AM 4:20 PM
Waning Gibbous, 67% visible
METAR LKMT 180430Z 05013KT 8000 OVC012 M05/M07 Q1036 R04/550195 NOSIG
Pressure 30.60 in
Visibility 5.0 miles
Clouds Overcast 1200 ft
Windchill 10 °F
Dew Point 19 °F
Humidity 86%
Rainfall 0.00 in
Snow Depth Not available.
7:36 AM 4:20 PM
Waning Gibbous, 67% visible
METAR LKMT 180430Z 05013KT 8000 OVC012 M05/M07 Q1036 R04/550195 NOSIG

Get Your Daily Forecast Email!

Thanks for signing up!

Be on the lookout for a verification email in your inbox.

You'll start receiving the daily forecast at 8 AM.

×

10-Day Weather Forecast

×

Almanac

Astronomy

Jan. 18, 2017 Rise Set
Actual Time
Civil Twilight
Nautical Twilight
Astronomical Twilight
Moon
Length of Visible Light
Length of Day
Tomorrow will be .
, % of the Moon is Illuminated

Today's Extremes

Country Highs Country Lows

Community

WunderPhotos

Upload Photos

1,962,540 photos uploaded!

WunderBlog® & News

Nearby

Air Quality

  Air Quality AQ Index Pollutant
Not available.

Snow Depth

Station Depth Elevation

Earthquake Activity

City Distance Mag. Time & Date
Minimum magnitude displayed is 2.5.

Coastal Water Temperatures

Place Temperature

Stations

Nearby Weather Stations

Station Location Temp. Windchill Dew Point Humidity Wind Precip. Elev Updated Type